createdAt,value
2019-04-07T00:00:16.497Z,2.60
2019-04-07T00:02:46.441Z,3.10
2019-04-07T00:05:14.818Z,2.90
2019-04-07T00:07:42.362Z,2.80
2019-04-07T00:10:09.961Z,3.60
2019-04-07T00:12:37.589Z,3.80
2019-04-07T00:15:05.084Z,2.83
2019-04-07T00:17:32.459Z,2.77
2019-04-07T00:19:59.688Z,2.97
2019-04-07T00:22:26.962Z,2.40
2019-04-07T00:24:54.217Z,2.60
2019-04-07T00:27:21.449Z,2.37
2019-04-07T00:29:48.727Z,2.57
2019-04-07T00:32:15.924Z,4.10
2019-04-07T00:34:43.217Z,2.57
2019-04-07T00:37:10.678Z,2.90
2019-04-07T00:39:37.918Z,2.23
2019-04-07T00:42:05.202Z,2.13
2019-04-07T00:44:32.817Z,2.20
2019-04-07T00:47:00.345Z,2.57
2019-04-07T00:49:28.131Z,2.30
2019-04-07T00:51:57.437Z,2.83
2019-04-07T00:54:25.415Z,2.30
2019-04-07T00:56:53.095Z,2.40
2019-04-07T00:59:20.771Z,2.70
2019-04-07T01:01:48.386Z,2.50
2019-04-07T01:04:15.663Z,2.40
2019-04-07T01:06:42.926Z,2.53
2019-04-07T01:09:10.396Z,2.70
2019-04-07T01:11:37.684Z,2.30
2019-04-07T01:14:05.022Z,3.47
2019-04-07T01:16:32.758Z,2.20
2019-04-07T01:19:00.337Z,2.53
2019-04-07T01:21:28.092Z,3.90
2019-04-07T01:23:55.732Z,3.47
2019-04-07T01:26:22.942Z,2.60
2019-04-07T01:28:50.754Z,3.40
2019-04-07T01:31:18.789Z,2.27
2019-04-07T01:33:46.870Z,2.27
2019-04-07T01:36:14.358Z,2.27
2019-04-07T01:38:42.156Z,1.73
2019-04-07T01:41:20.243Z,2.37
2019-04-07T01:43:56.769Z,1.80
2019-04-07T01:46:47.253Z,2.33
2019-04-07T01:49:27.364Z,1.93
2019-04-07T01:52:10.909Z,2.40
2019-04-07T01:54:44.744Z,1.90
2019-04-07T01:57:41.083Z,1.90
2019-04-07T02:00:18.551Z,2.10
2019-04-07T02:03:07.994Z,2.13
2019-04-07T02:05:59.825Z,1.90
2019-04-07T02:08:42.868Z,2.27
2019-04-07T02:11:28.787Z,2.10
2019-04-07T02:14:15.875Z,2.80
2019-04-07T02:16:49.003Z,1.60
2019-04-07T02:19:38.489Z,2.07
2019-04-07T02:22:24.016Z,1.70
2019-04-07T02:24:57.617Z,1.97
2019-04-07T02:27:38.638Z,2.03
2019-04-07T02:30:31.708Z,2.40
2019-04-07T02:33:08.447Z,2.30
2019-04-07T02:35:45.023Z,1.87
2019-04-07T02:38:21.487Z,2.27
2019-04-07T02:41:17.828Z,2.27
2019-04-07T02:44:10.836Z,2.20
2019-04-07T02:47:06.859Z,2.00
2019-04-07T02:49:50.083Z,3.03
2019-04-07T02:52:45.727Z,3.20
2019-04-07T02:55:35.596Z,2.00
2019-04-07T02:58:22.854Z,1.80
2019-04-07T03:01:13.626Z,1.90
2019-04-07T03:04:01.816Z,2.07
2019-04-07T03:06:52.870Z,2.40
2019-04-07T03:09:35.003Z,2.43
2019-04-07T03:12:34.187Z,3.20
2019-04-07T03:15:22.781Z,2.00
2019-04-07T03:18:16.328Z,2.30
2019-04-07T03:20:50.366Z,3.00
2019-04-07T03:23:36.491Z,2.87
2019-04-07T03:26:18.352Z,3.10
2019-04-07T03:29:03.758Z,3.07
2019-04-07T03:31:51.507Z,4.00
2019-04-07T03:34:38.720Z,3.90
2019-04-07T03:37:37.101Z,4.07
2019-04-07T03:40:22.287Z,2.50
2019-04-07T03:43:09.423Z,3.97
2019-04-07T03:45:57.223Z,2.60
2019-04-07T03:48:35.420Z,2.53
2019-04-07T03:51:13.858Z,2.70
2019-04-07T03:54:07.212Z,2.40
2019-04-07T03:57:00.454Z,2.57
2019-04-07T03:59:47.398Z,2.67
2019-04-07T04:02:33.310Z,2.53
2019-04-07T04:05:20.719Z,2.80
2019-04-07T04:07:56.775Z,3.97
2019-04-07T04:10:50.135Z,1.90
2019-04-07T04:13:27.362Z,2.47
2019-04-07T04:16:03.218Z,1.80
2019-04-07T04:18:30.944Z,1.90
2019-04-07T04:20:59.464Z,1.67
2019-04-07T04:23:27.142Z,3.00
2019-04-07T04:25:54.425Z,2.53
2019-04-07T04:28:21.900Z,2.07
2019-04-07T04:30:49.319Z,1.67
2019-04-07T04:33:16.587Z,1.80
2019-04-07T04:35:44.169Z,1.90
2019-04-07T04:38:12.183Z,2.07
2019-04-07T04:40:40.767Z,1.77
2019-04-07T04:43:08.996Z,1.70
2019-04-07T04:45:36.550Z,1.93
2019-04-07T04:48:04.481Z,1.60
2019-04-07T04:50:32.137Z,2.60
2019-04-07T04:52:59.909Z,3.63
2019-04-07T04:55:27.501Z,1.80
2019-04-07T04:57:54.911Z,1.97
2019-04-07T05:00:22.147Z,3.20
2019-04-07T05:02:49.557Z,3.03
2019-04-07T05:05:17.059Z,1.90
2019-04-07T05:07:55.664Z,2.63
2019-04-07T05:10:13.745Z,2.67
2019-04-07T05:12:41.207Z,2.47
2019-04-07T05:15:09.735Z,2.13
2019-04-07T05:17:37.107Z,1.77
2019-04-07T05:20:04.686Z,2.00
2019-04-07T05:22:32.094Z,3.10
2019-04-07T05:24:59.689Z,3.40
2019-04-07T05:27:27.587Z,2.00
2019-04-07T05:29:55.621Z,2.07
2019-04-07T05:32:23.300Z,2.00
2019-04-07T05:34:50.600Z,2.90
2019-04-07T05:37:17.887Z,1.77
2019-04-07T05:39:45.171Z,1.80
2019-04-07T05:42:13.438Z,1.70
2019-04-07T05:44:43.197Z,2.07
2019-04-07T05:47:12.308Z,1.63
2019-04-07T05:49:39.654Z,2.10
2019-04-07T05:52:06.906Z,1.70
2019-04-07T05:54:34.223Z,2.13
2019-04-07T05:57:01.820Z,2.43
2019-04-07T05:59:30.361Z,2.50
2019-04-07T06:02:00.673Z,2.80
2019-04-07T06:04:27.077Z,2.90
2019-04-07T06:06:56.033Z,2.80
2019-04-07T06:09:24.185Z,5.03
2019-04-07T06:11:52.220Z,2.67
2019-04-07T06:14:20.501Z,2.47
2019-04-07T06:16:52.493Z,2.93
2019-04-07T06:19:17.090Z,4.87
2019-04-07T06:21:47.280Z,2.57
2019-04-07T06:24:13.669Z,3.60
2019-04-07T06:26:42.117Z,2.77
2019-04-07T06:29:10.492Z,3.27
2019-04-07T06:31:40.732Z,3.77
2019-04-07T06:34:10.494Z,2.60
2019-04-07T06:36:38.636Z,2.27
2019-04-07T06:39:08.213Z,2.60
2019-04-07T06:41:36.715Z,2.47
2019-04-07T06:44:12.382Z,2.73
2019-04-07T06:47:04.726Z,3.00
2019-04-07T06:49:52.065Z,2.60
2019-04-07T06:52:26.065Z,3.60
2019-04-07T06:55:15.594Z,3.03
2019-04-07T06:57:53.766Z,3.43
2019-04-07T07:00:32.047Z,2.77
2019-04-07T07:03:24.851Z,3.10
2019-04-07T07:06:06.842Z,3.00
2019-04-07T07:08:57.331Z,3.97
2019-04-07T07:11:56.425Z,3.93
2019-04-07T07:14:43.717Z,3.70
2019-04-07T07:17:27.951Z,3.10
2019-04-07T07:20:04.400Z,2.60
2019-04-07T07:22:46.694Z,1.90
2019-04-07T07:25:13.236Z,2.97
2019-04-07T07:27:41.582Z,3.10
2019-04-07T07:30:09.777Z,2.93
2019-04-07T07:32:37.911Z,2.63
2019-04-07T07:35:06.289Z,2.53
2019-04-07T07:37:33.719Z,2.40
2019-04-07T07:40:01.046Z,2.53
2019-04-07T07:42:28.925Z,2.67
2019-04-07T07:44:57.063Z,2.70
2019-04-07T07:47:25.303Z,9.53
2019-04-07T07:49:52.788Z,3.90
2019-04-07T07:52:21.765Z,8.97
2019-04-07T07:54:49.570Z,5.87
2019-04-07T07:57:21.025Z,3.20
2019-04-07T07:59:46.394Z,6.13
2019-04-07T08:02:17.489Z,8.50
2019-04-07T08:04:43.585Z,3.67
2019-04-07T08:07:13.559Z,2.97
2019-04-07T08:09:40.320Z,6.13
2019-04-07T08:12:08.300Z,2.00
2019-04-07T08:14:35.995Z,3.23
2019-04-07T08:17:04.100Z,3.00
2019-04-07T08:19:31.836Z,2.13
2019-04-07T08:21:59.648Z,5.27
2019-04-07T08:24:27.347Z,3.13
2019-04-07T08:26:57.135Z,2.20
2019-04-07T08:29:23.999Z,2.93
2019-04-07T08:31:54.157Z,2.53
2019-04-07T08:34:20.637Z,2.00
2019-04-07T08:36:48.163Z,2.20
2019-04-07T08:39:23.929Z,2.43
2019-04-07T08:41:45.190Z,2.50
2019-04-07T08:44:13.138Z,3.37
2019-04-07T08:46:42.891Z,2.80
2019-04-07T08:49:09.697Z,2.27
2019-04-07T08:51:36.987Z,2.53
2019-04-07T08:54:05.079Z,2.00
2019-04-07T08:56:34.078Z,1.90
2019-04-07T08:59:01.609Z,2.70
2019-04-07T09:01:30.560Z,2.63
2019-04-07T09:03:58.558Z,2.40
2019-04-07T09:06:28.460Z,2.67
2019-04-07T09:08:55.153Z,2.30
2019-04-07T09:11:23.636Z,3.07
2019-04-07T09:13:52.796Z,2.37
2019-04-07T09:16:29.085Z,2.13
2019-04-07T09:19:19.343Z,4.23
2019-04-07T09:22:06.312Z,3.17
2019-04-07T09:24:52.093Z,2.70
2019-04-07T09:27:27.407Z,2.20
2019-04-07T09:30:05.903Z,2.40
2019-04-07T09:33:01.347Z,1.90
2019-04-07T09:35:56.647Z,1.80
2019-04-07T09:38:45.958Z,2.13
2019-04-07T09:41:31.852Z,1.73
2019-04-07T09:44:17.345Z,1.53
2019-04-07T09:47:17.264Z,2.27
2019-04-07T09:50:06.844Z,1.90
2019-04-07T09:52:53.693Z,1.93
2019-04-07T09:55:37.860Z,2.00
2019-04-07T09:58:33.711Z,3.30
2019-04-07T10:01:20.755Z,2.30
2019-04-07T10:03:58.565Z,2.07
2019-04-07T10:06:49.574Z,1.80
2019-04-07T10:09:46.139Z,1.83
2019-04-07T10:12:26.712Z,1.97
2019-04-07T10:15:14.048Z,3.20
2019-04-07T10:17:47.484Z,1.73
2019-04-07T10:20:34.405Z,1.73
2019-04-07T10:23:16.263Z,2.80
2019-04-07T10:26:06.037Z,2.37
2019-04-07T10:28:51.773Z,1.30
2019-04-07T10:31:25.767Z,1.50
2019-04-07T10:33:59.816Z,1.57
2019-04-07T10:36:36.259Z,1.13
2019-04-07T10:39:22.983Z,1.00
2019-04-07T10:42:11.394Z,1.27
2019-04-07T10:45:01.242Z,0.90
2019-04-07T10:47:57.786Z,1.23
2019-04-07T10:50:56.660Z,1.10
2019-04-07T10:53:38.656Z,3.20
2019-04-07T10:56:27.731Z,1.10
2019-04-07T10:59:23.986Z,1.23
2019-04-07T11:02:14.447Z,1.13
2019-04-07T11:04:57.395Z,1.37
2019-04-07T11:07:43.758Z,1.50
2019-04-07T11:10:34.469Z,1.10
2019-04-07T11:13:12.725Z,1.20
2019-04-07T11:16:10.280Z,1.30
2019-04-07T11:18:49.108Z,1.40
2019-04-07T11:21:30.292Z,1.43
2019-04-07T11:24:24.001Z,1.20
2019-04-07T11:27:05.643Z,1.40
2019-04-07T11:29:45.864Z,0.90
2019-04-07T11:32:36.036Z,1.20
2019-04-07T11:35:28.943Z,1.57
2019-04-07T11:38:21.251Z,1.33
2019-04-07T11:41:08.280Z,1.30
2019-04-07T11:43:51.011Z,1.20
2019-04-07T11:46:36.250Z,1.37
2019-04-07T11:49:26.655Z,1.43
2019-04-07T11:52:05.929Z,1.40
2019-04-07T11:54:47.889Z,1.47
2019-04-07T11:57:45.254Z,1.13
2019-04-07T12:00:33.318Z,1.20
2019-04-07T12:03:27.938Z,1.73
2019-04-07T12:06:11.627Z,1.20
2019-04-07T12:09:00.276Z,1.47
2019-04-07T12:11:55.089Z,1.20
2019-04-07T12:14:40.608Z,1.20
2019-04-07T12:17:28.768Z,1.77
2019-04-07T12:20:33.508Z,1.20
2019-04-07T12:23:04.706Z,1.43
2019-04-07T12:25:57.756Z,1.30
2019-04-07T12:28:52.444Z,1.87
2019-04-07T12:31:40.428Z,1.10
2019-04-07T12:34:36.500Z,1.30
2019-04-07T12:37:15.629Z,1.20
2019-04-07T12:40:01.435Z,2.07
2019-04-07T12:42:52.205Z,1.27
2019-04-07T12:45:28.570Z,2.17
2019-04-07T12:48:14.520Z,1.20
2019-04-07T12:50:57.330Z,1.40
2019-04-07T12:53:46.934Z,1.00
2019-04-07T12:56:44.533Z,1.30
2019-04-07T12:59:28.270Z,2.53
2019-04-07T13:02:25.818Z,1.33
2019-04-07T13:05:19.649Z,1.30
2019-04-07T13:08:05.953Z,1.23
2019-04-07T13:10:41.741Z,1.07
2019-04-07T13:13:33.895Z,1.30
2019-04-07T13:16:30.501Z,1.23
2019-04-07T13:19:27.466Z,2.07
2019-04-07T13:22:04.616Z,1.00
2019-04-07T13:24:45.426Z,1.53
2019-04-07T13:27:35.186Z,1.40
2019-04-07T13:30:21.369Z,2.30
2019-04-07T13:33:02.940Z,1.30
2019-04-07T13:35:36.211Z,1.30
2019-04-07T13:38:22.032Z,1.30
2019-04-07T13:41:12.278Z,0.90
2019-04-07T13:44:07.264Z,0.80
2019-04-07T13:46:57.510Z,1.37
2019-04-07T13:49:57.380Z,2.17
2019-04-07T13:52:41.936Z,1.27
2019-04-07T13:55:24.122Z,1.30
2019-04-07T13:58:00.503Z,1.30
2019-04-07T14:01:05.361Z,1.10
2019-04-07T14:03:41.813Z,1.17
2019-04-07T14:06:31.302Z,1.37
2019-04-07T14:09:18.140Z,1.10
2019-04-07T14:12:04.824Z,2.43
2019-04-07T14:14:42.606Z,1.57
2019-04-07T14:17:30.853Z,2.37
2019-04-07T14:20:21.472Z,1.20
2019-04-07T14:22:57.859Z,1.00
2019-04-07T14:25:44.490Z,1.20
2019-04-07T14:28:29.651Z,1.53
2019-04-07T14:31:19.663Z,2.67
2019-04-07T14:33:58.941Z,3.60
2019-04-07T14:36:43.937Z,4.23
2019-04-07T14:39:43.417Z,3.80
2019-04-07T14:42:29.532Z,5.00
2019-04-07T14:45:19.966Z,3.63
2019-04-07T14:48:10.902Z,6.20
2019-04-07T14:50:50.569Z,6.60
2019-04-07T14:53:37.677Z,7.23
2019-04-07T14:56:24.939Z,6.07
2019-04-07T14:59:12.938Z,5.73
2019-04-07T15:01:52.384Z,7.93
2019-04-07T15:04:21.517Z,7.60
2019-04-07T15:06:58.092Z,8.07
2019-04-07T15:09:45.850Z,8.77
2019-04-07T15:12:23.866Z,9.47
2019-04-07T15:14:49.248Z,9.80
2019-04-07T15:17:16.698Z,9.57
2019-04-07T15:19:44.253Z,11.10
2019-04-07T15:22:12.131Z,12.03
2019-04-07T15:24:39.797Z,10.80
2019-04-07T15:27:08.003Z,10.27
2019-04-07T15:29:39.423Z,11.60
2019-04-07T15:32:07.119Z,12.37
2019-04-07T15:34:34.876Z,11.87
2019-04-07T15:37:02.389Z,10.53
2019-04-07T15:39:30.341Z,12.00
2019-04-07T15:41:59.053Z,10.47
2019-04-07T15:44:27.139Z,11.57
2019-04-07T15:46:54.937Z,11.77
2019-04-07T15:49:27.390Z,10.77
2019-04-07T15:51:54.009Z,12.20
2019-04-07T15:54:24.169Z,11.93
2019-04-07T15:56:53.992Z,12.40
2019-04-07T15:59:22.662Z,10.87
2019-04-07T16:01:50.514Z,13.53
2019-04-07T16:04:23.717Z,12.97
2019-04-07T16:06:50.240Z,14.27
2019-04-07T16:09:30.508Z,13.63
2019-04-07T16:11:49.334Z,14.13
2019-04-07T16:14:16.477Z,12.80
2019-04-07T16:16:43.994Z,13.50
2019-04-07T16:19:17.543Z,13.90
2019-04-07T16:21:42.992Z,13.77
2019-04-07T16:24:11.435Z,13.40
2019-04-07T16:26:39.913Z,13.40
2019-04-07T16:29:08.970Z,13.13
2019-04-07T16:31:36.728Z,13.63
2019-04-07T16:34:06.684Z,14.30
2019-04-07T16:36:35.099Z,14.20
2019-04-07T16:39:07.870Z,15.20
2019-04-07T16:41:35.882Z,15.23
2019-04-07T16:44:06.997Z,13.33
2019-04-07T16:46:33.779Z,14.67
2019-04-07T16:49:04.556Z,15.37
2019-04-07T16:51:33.894Z,14.73
2019-04-07T16:54:02.749Z,21.03
2019-04-07T16:56:34.499Z,16.67
2019-04-07T16:59:02.713Z,15.97
2019-04-07T17:01:30.433Z,15.53
2019-04-07T17:03:59.331Z,17.07
2019-04-07T17:06:31.863Z,19.33
2019-04-07T17:08:56.899Z,17.90
2019-04-07T17:11:24.797Z,16.13
2019-04-07T17:13:55.829Z,17.07
2019-04-07T17:16:25.019Z,18.63
2019-04-07T17:18:55.376Z,18.03
2019-04-07T17:21:23.054Z,19.23
2019-04-07T17:23:55.449Z,18.40
2019-04-07T17:26:24.146Z,16.07
2019-04-07T17:28:52.860Z,17.10
2019-04-07T17:31:21.732Z,16.97
2019-04-07T17:33:49.768Z,14.80
2019-04-07T17:36:21.089Z,14.80
2019-04-07T17:39:08.259Z,13.13
2019-04-07T17:41:36.023Z,11.63
2019-04-07T17:44:26.695Z,11.87
2019-04-07T17:47:14.318Z,14.77
2019-04-07T17:50:07.453Z,11.97
2019-04-07T17:52:55.801Z,13.00
2019-04-07T17:55:45.858Z,14.80
2019-04-07T17:58:24.494Z,27.53
2019-04-07T18:01:11.577Z,29.13
2019-04-07T18:03:56.591Z,11.80
2019-04-07T18:06:57.142Z,11.07
2019-04-07T18:09:33.022Z,10.87
2019-04-07T18:12:18.030Z,11.87
2019-04-07T18:15:08.882Z,13.10
2019-04-07T18:17:54.087Z,13.07
2019-04-07T18:20:41.434Z,12.00
2019-04-07T18:23:27.760Z,11.03
2019-04-07T18:26:07.184Z,12.97
2019-04-07T18:28:52.679Z,11.37
2019-04-07T18:31:42.001Z,11.63
2019-04-07T18:34:35.447Z,10.53
2019-04-07T18:37:32.417Z,10.63
2019-04-07T18:40:29.584Z,12.27
2019-04-07T18:43:22.686Z,11.67
2019-04-07T18:46:11.854Z,12.87
2019-04-07T18:49:12.562Z,11.57
2019-04-07T18:52:00.317Z,11.83
2019-04-07T18:54:46.486Z,12.37
2019-04-07T18:57:42.614Z,14.33
2019-04-07T19:00:32.508Z,13.00
2019-04-07T19:03:29.657Z,12.40
2019-04-07T19:06:16.671Z,10.93
2019-04-07T19:09:12.228Z,11.10
2019-04-07T19:12:16.781Z,9.77
2019-04-07T19:15:01.623Z,9.50
2019-04-07T19:17:40.620Z,8.80
2019-04-07T19:20:31.666Z,8.13
2019-04-07T19:23:21.606Z,6.33
2019-04-07T19:25:57.748Z,6.63
2019-04-07T19:28:49.904Z,4.93
2019-04-07T19:31:51.724Z,6.67
2019-04-07T19:34:32.509Z,6.53
2019-04-07T19:37:30.397Z,5.03
2019-04-07T19:40:16.712Z,5.50
2019-04-07T19:42:54.552Z,6.53
2019-04-07T19:45:30.741Z,6.20
2019-04-07T19:48:25.372Z,5.87
2019-04-07T19:51:22.603Z,7.47
2019-04-07T19:54:19.533Z,3.80
2019-04-07T19:57:23.802Z,2.97
2019-04-07T20:00:03.331Z,3.70
2019-04-07T20:03:11.396Z,3.20
2019-04-07T20:05:58.483Z,2.87
2019-04-07T20:08:44.024Z,3.10
2019-04-07T20:11:30.913Z,4.37
2019-04-07T20:14:04.931Z,3.33
2019-04-07T20:16:51.452Z,3.20
2019-04-07T20:19:37.208Z,3.40
2019-04-07T20:22:23.136Z,3.13
2019-04-07T20:25:13.360Z,4.40
2019-04-07T20:27:57.326Z,3.40
2019-04-07T20:30:54.008Z,3.23
2019-04-07T20:33:38.729Z,3.30
2019-04-07T20:36:32.026Z,3.60
2019-04-07T20:39:06.059Z,5.73
2019-04-07T20:42:08.684Z,2.83
2019-04-07T20:45:00.878Z,2.87
2019-04-07T20:47:41.086Z,3.13
2019-04-07T20:50:22.081Z,3.27
2019-04-07T20:53:14.578Z,3.23
2019-04-07T20:56:02.029Z,3.93
2019-04-07T20:58:48.790Z,3.43
2019-04-07T21:01:42.972Z,3.67
2019-04-07T21:04:35.305Z,3.80
2019-04-07T21:07:31.358Z,3.30
2019-04-07T21:10:08.251Z,3.30
2019-04-07T21:12:52.778Z,4.00
2019-04-07T21:15:38.896Z,3.93
2019-04-07T21:18:26.857Z,4.37
2019-04-07T21:21:03.169Z,3.10
2019-04-07T21:23:46.230Z,3.37
2019-04-07T21:26:39.684Z,3.40
2019-04-07T21:29:26.824Z,3.40
2019-04-07T21:32:15.123Z,3.33
2019-04-07T21:35:10.862Z,4.60
2019-04-07T21:38:00.622Z,4.17
2019-04-07T21:40:57.713Z,4.43
2019-04-07T21:43:55.442Z,3.87
2019-04-07T21:46:45.026Z,3.90
2019-04-07T21:49:19.461Z,4.23
2019-04-07T21:51:55.302Z,4.50
2019-04-07T21:54:30.706Z,4.50
2019-04-07T21:57:19.293Z,4.50
2019-04-07T22:00:06.967Z,5.27
2019-04-07T22:02:52.528Z,4.57
2019-04-07T22:05:39.127Z,4.70
2019-04-07T22:08:17.082Z,4.90
2019-04-07T22:10:43.569Z,6.03
2019-04-07T22:13:10.854Z,4.37
2019-04-07T22:15:45.819Z,4.33
2019-04-07T22:18:08.724Z,4.73
2019-04-07T22:20:36.958Z,4.83
2019-04-07T22:23:07.954Z,5.83
2019-04-07T22:25:42.094Z,6.23
2019-04-07T22:28:09.669Z,7.07
2019-04-07T22:30:40.679Z,6.03
2019-04-07T22:33:06.254Z,5.93
2019-04-07T22:35:36.459Z,6.63
2019-04-07T22:38:03.135Z,6.63
2019-04-07T22:40:34.229Z,6.63
2019-04-07T22:42:59.720Z,6.80
2019-04-07T22:45:29.938Z,6.17
2019-04-07T22:47:57.106Z,5.67
2019-04-07T22:50:25.283Z,6.17
2019-04-07T22:52:53.335Z,4.80
2019-04-07T22:55:20.894Z,4.27
2019-04-07T22:57:48.407Z,7.60
2019-04-07T23:00:21.192Z,8.37
2019-04-07T23:02:48.748Z,7.33
2019-04-07T23:05:16.941Z,7.67
2019-04-07T23:07:44.568Z,6.23
2019-04-07T23:10:11.910Z,6.17
2019-04-07T23:12:40.844Z,6.10
2019-04-07T23:15:09.132Z,6.93
2019-04-07T23:17:36.501Z,6.33
2019-04-07T23:20:04.394Z,7.97
2019-04-07T23:22:31.628Z,6.43
2019-04-07T23:24:59.388Z,6.77
2019-04-07T23:27:27.582Z,10.13
2019-04-07T23:29:55.109Z,10.23
2019-04-07T23:32:23.919Z,11.17
2019-04-07T23:34:52.041Z,10.20
2019-04-07T23:37:19.349Z,8.87
2019-04-07T23:39:46.589Z,7.00
2019-04-07T23:42:14.528Z,8.77
2019-04-07T23:44:43.673Z,8.07
2019-04-07T23:47:11.199Z,8.37
2019-04-07T23:49:38.589Z,8.73
2019-04-07T23:52:07.503Z,8.30
2019-04-07T23:54:35.251Z,8.87
2019-04-07T23:57:03.840Z,8.70
2019-04-07T23:59:31.147Z,8.70
